sensor_id;sensor_type;location;lat;lon;timestamp;P1;durP1;ratioP1;P2;durP2;ratioP2
25191;SDS011;13143;50.924;5.320;2023-04-25T00:00:00;22.08;;;5.65;;
25191;SDS011;13143;50.924;5.320;2023-04-25T00:02:26;23.83;;;6.13;;
25191;SDS011;13143;50.924;5.320;2023-04-25T00:04:53;25.63;;;6.03;;
25191;SDS011;13143;50.924;5.320;2023-04-25T00:07:24;21.17;;;5.32;;
25191;SDS011;13143;50.924;5.320;2023-04-25T00:09:50;27.10;;;5.85;;
25191;SDS011;13143;50.924;5.320;2023-04-25T00:12:16;25.25;;;5.38;;
25191;SDS011;13143;50.924;5.320;2023-04-25T00:14:43;21.00;;;5.35;;
25191;SDS011;13143;50.924;5.320;2023-04-25T00:17:10;20.42;;;5.05;;
25191;SDS011;13143;50.924;5.320;2023-04-25T00:19:36;22.58;;;5.43;;
25191;SDS011;13143;50.924;5.320;2023-04-25T00:22:03;22.10;;;5.45;;
25191;SDS011;13143;50.924;5.320;2023-04-25T00:24:30;22.20;;;5.80;;
25191;SDS011;13143;50.924;5.320;2023-04-25T00:26:56;26.70;;;5.75;;
25191;SDS011;13143;50.924;5.320;2023-04-25T00:29:22;24.25;;;4.90;;
25191;SDS011;13143;50.924;5.320;2023-04-25T00:31:49;27.30;;;6.95;;
25191;SDS011;13143;50.924;5.320;2023-04-25T00:34:15;25.90;;;5.45;;
25191;SDS011;13143;50.924;5.320;2023-04-25T00:36:41;20.38;;;5.07;;
25191;SDS011;13143;50.924;5.320;2023-04-25T00:39:07;29.08;;;5.72;;
25191;SDS011;13143;50.924;5.320;2023-04-25T00:41:33;17.98;;;5.53;;
25191;SDS011;13143;50.924;5.320;2023-04-25T00:44:00;19.45;;;5.07;;
25191;SDS011;13143;50.924;5.320;2023-04-25T00:46:27;25.38;;;6.78;;
25191;SDS011;13143;50.924;5.320;2023-04-25T00:48:53;30.95;;;5.45;;
25191;SDS011;13143;50.924;5.320;2023-04-25T00:51:20;23.13;;;5.88;;
25191;SDS011;13143;50.924;5.320;2023-04-25T00:53:47;25.85;;;6.13;;
25191;SDS011;13143;50.924;5.320;2023-04-25T00:56:15;22.40;;;5.80;;
25191;SDS011;13143;50.924;5.320;2023-04-25T00:58:41;23.83;;;5.88;;
25191;SDS011;13143;50.924;5.320;2023-04-25T01:01:11;20.08;;;5.78;;
25191;SDS011;13143;50.924;5.320;2023-04-25T01:03:38;25.35;;;6.38;;
25191;SDS011;13143;50.924;5.320;2023-04-25T01:06:09;20.50;;;6.40;;
25191;SDS011;13143;50.924;5.320;2023-04-25T01:08:36;22.73;;;6.50;;
25191;SDS011;13143;50.924;5.320;2023-04-25T01:11:03;23.85;;;5.82;;
25191;SDS011;13143;50.924;5.320;2023-04-25T01:13:30;27.23;;;5.97;;
25191;SDS011;13143;50.924;5.320;2023-04-25T01:15:58;22.25;;;6.45;;
25191;SDS011;13143;50.924;5.320;2023-04-25T01:18:24;31.40;;;7.32;;
25191;SDS011;13143;50.924;5.320;2023-04-25T01:20:51;20.08;;;5.35;;
25191;SDS011;13143;50.924;5.320;2023-04-25T01:23:18;30.77;;;6.13;;
25191;SDS011;13143;50.924;5.320;2023-04-25T01:25:47;20.70;;;6.13;;
25191;SDS011;13143;50.924;5.320;2023-04-25T01:28:14;29.38;;;6.22;;
25191;SDS011;13143;50.924;5.320;2023-04-25T01:30:41;24.55;;;5.80;;
25191;SDS011;13143;50.924;5.320;2023-04-25T01:33:08;29.60;;;5.68;;
25191;SDS011;13143;50.924;5.320;2023-04-25T01:35:34;26.30;;;5.80;;
25191;SDS011;13143;50.924;5.320;2023-04-25T01:38:01;30.08;;;5.97;;
25191;SDS011;13143;50.924;5.320;2023-04-25T01:40:27;28.98;;;7.03;;
25191;SDS011;13143;50.924;5.320;2023-04-25T01:42:53;20.05;;;5.22;;
25191;SDS011;13143;50.924;5.320;2023-04-25T01:45:20;19.63;;;5.50;;
25191;SDS011;13143;50.924;5.320;2023-04-25T01:47:46;21.95;;;6.18;;
25191;SDS011;13143;50.924;5.320;2023-04-25T01:50:15;20.85;;;5.13;;
25191;SDS011;13143;50.924;5.320;2023-04-25T01:52:43;27.25;;;5.72;;
25191;SDS011;13143;50.924;5.320;2023-04-25T01:55:09;27.23;;;6.13;;
25191;SDS011;13143;50.924;5.320;2023-04-25T01:57:35;22.85;;;5.80;;
25191;SDS011;13143;50.924;5.320;2023-04-25T02:00:03;22.90;;;5.80;;
25191;SDS011;13143;50.924;5.320;2023-04-25T02:02:31;22.25;;;6.40;;
25191;SDS011;13143;50.924;5.320;2023-04-25T02:04:57;19.42;;;5.43;;
25191;SDS011;13143;50.924;5.320;2023-04-25T02:07:23;28.08;;;6.20;;
25191;SDS011;13143;50.924;5.320;2023-04-25T02:09:49;23.40;;;5.60;;
25191;SDS011;13143;50.924;5.320;2023-04-25T02:12:15;26.45;;;5.85;;
25191;SDS011;13143;50.924;5.320;2023-04-25T02:14:41;30.52;;;6.55;;
25191;SDS011;13143;50.924;5.320;2023-04-25T02:17:07;19.02;;;5.80;;
25191;SDS011;13143;50.924;5.320;2023-04-25T02:19:33;22.40;;;6.45;;
25191;SDS011;13143;50.924;5.320;2023-04-25T02:21:59;19.98;;;5.82;;
25191;SDS011;13143;50.924;5.320;2023-04-25T02:24:26;24.70;;;7.45;;
25191;SDS011;13143;50.924;5.320;2023-04-25T02:26:53;20.13;;;6.40;;
25191;SDS011;13143;50.924;5.320;2023-04-25T02:29:21;23.15;;;6.57;;
25191;SDS011;13143;50.924;5.320;2023-04-25T02:31:47;30.42;;;6.00;;
25191;SDS011;13143;50.924;5.320;2023-04-25T02:34:13;20.67;;;6.45;;
25191;SDS011;13143;50.924;5.320;2023-04-25T02:36:39;18.90;;;5.95;;
25191;SDS011;13143;50.924;5.320;2023-04-25T02:39:05;21.67;;;6.70;;
25191;SDS011;13143;50.924;5.320;2023-04-25T02:41:31;23.92;;;6.78;;
25191;SDS011;13143;50.924;5.320;2023-04-25T02:43:57;19.55;;;6.35;;
25191;SDS011;13143;50.924;5.320;2023-04-25T02:46:23;25.92;;;5.88;;
25191;SDS011;13143;50.924;5.320;2023-04-25T02:48:49;19.67;;;6.63;;
25191;SDS011;13143;50.924;5.320;2023-04-25T02:51:15;29.42;;;6.90;;
25191;SDS011;13143;50.924;5.320;2023-04-25T02:53:42;22.95;;;6.63;;
25191;SDS011;13143;50.924;5.320;2023-04-25T02:56:08;21.95;;;6.22;;
25191;SDS011;13143;50.924;5.320;2023-04-25T02:58:34;22.98;;;6.20;;
25191;SDS011;13143;50.924;5.320;2023-04-25T03:01:00;23.95;;;6.07;;
25191;SDS011;13143;50.924;5.320;2023-04-25T03:03:26;22.25;;;6.65;;
25191;SDS011;13143;50.924;5.320;2023-04-25T03:05:52;28.80;;;7.00;;
25191;SDS011;13143;50.924;5.320;2023-04-25T03:08:18;25.73;;;7.38;;
25191;SDS011;13143;50.924;5.320;2023-04-25T03:10:44;23.67;;;6.28;;
25191;SDS011;13143;50.924;5.320;2023-04-25T03:13:11;23.83;;;7.20;;
25191;SDS011;13143;50.924;5.320;2023-04-25T03:15:37;20.33;;;7.32;;
25191;SDS011;13143;50.924;5.320;2023-04-25T03:18:04;24.73;;;7.20;;
25191;SDS011;13143;50.924;5.320;2023-04-25T03:20:30;28.98;;;7.28;;
25191;SDS011;13143;50.924;5.320;2023-04-25T03:22:56;28.88;;;7.35;;
25191;SDS011;13143;50.924;5.320;2023-04-25T03:25:22;25.83;;;7.32;;
25191;SDS011;13143;50.924;5.320;2023-04-25T03:27:48;32.30;;;8.88;;
25191;SDS011;13143;50.924;5.320;2023-04-25T03:30:14;30.02;;;8.35;;
25191;SDS011;13143;50.924;5.320;2023-04-25T03:32:40;32.05;;;8.32;;
25191;SDS011;13143;50.924;5.320;2023-04-25T03:35:06;34.03;;;8.65;;
25191;SDS011;13143;50.924;5.320;2023-04-25T03:37:33;32.22;;;7.63;;
25191;SDS011;13143;50.924;5.320;2023-04-25T03:39:59;28.63;;;7.63;;
25191;SDS011;13143;50.924;5.320;2023-04-25T03:42:25;30.05;;;7.80;;
25191;SDS011;13143;50.924;5.320;2023-04-25T03:44:51;33.25;;;8.65;;
25191;SDS011;13143;50.924;5.320;2023-04-25T03:47:18;26.35;;;9.38;;
25191;SDS011;13143;50.924;5.320;2023-04-25T03:49:44;34.75;;;14.02;;
25191;SDS011;13143;50.924;5.320;2023-04-25T03:52:10;54.10;;;18.20;;
25191;SDS011;13143;50.924;5.320;2023-04-25T03:54:36;39.50;;;17.63;;
25191;SDS011;13143;50.924;5.320;2023-04-25T03:57:02;31.80;;;8.73;;
25191;SDS011;13143;50.924;5.320;2023-04-25T03:59:28;25.77;;;7.95;;
25191;SDS011;13143;50.924;5.320;2023-04-25T04:01:54;31.60;;;8.20;;
25191;SDS011;13143;50.924;5.320;2023-04-25T04:04:20;32.72;;;9.90;;
25191;SDS011;13143;50.924;5.320;2023-04-25T04:06:46;35.70;;;10.38;;
25191;SDS011;13143;50.924;5.320;2023-04-25T04:09:12;49.97;;;15.00;;
25191;SDS011;13143;50.924;5.320;2023-04-25T04:11:39;39.20;;;14.05;;
25191;SDS011;13143;50.924;5.320;2023-04-25T04:14:06;36.63;;;11.90;;
25191;SDS011;13143;50.924;5.320;2023-04-25T04:16:32;38.53;;;9.45;;
25191;SDS011;13143;50.924;5.320;2023-04-25T04:18:58;30.55;;;7.32;;
25191;SDS011;13143;50.924;5.320;2023-04-25T04:21:24;30.58;;;6.20;;
25191;SDS011;13143;50.924;5.320;2023-04-25T04:23:52;22.63;;;6.63;;
25191;SDS011;13143;50.924;5.320;2023-04-25T04:26:20;24.00;;;4.90;;
25191;SDS011;13143;50.924;5.320;2023-04-25T04:28:49;28.08;;;5.78;;
25191;SDS011;13143;50.924;5.320;2023-04-25T04:31:17;17.63;;;4.93;;
25191;SDS011;13143;50.924;5.320;2023-04-25T04:33:45;18.83;;;5.03;;
25191;SDS011;13143;50.924;5.320;2023-04-25T04:36:11;25.27;;;5.00;;
25191;SDS011;13143;50.924;5.320;2023-04-25T04:38:37;26.23;;;4.97;;
25191;SDS011;13143;50.924;5.320;2023-04-25T04:41:03;19.33;;;5.32;;
25191;SDS011;13143;50.924;5.320;2023-04-25T04:43:29;25.60;;;5.18;;
25191;SDS011;13143;50.924;5.320;2023-04-25T04:45:55;20.63;;;4.80;;
25191;SDS011;13143;50.924;5.320;2023-04-25T04:48:22;16.63;;;4.35;;
25191;SDS011;13143;50.924;5.320;2023-04-25T04:50:48;24.15;;;4.65;;
25191;SDS011;13143;50.924;5.320;2023-04-25T04:53:14;15.50;;;4.57;;
25191;SDS011;13143;50.924;5.320;2023-04-25T04:55:40;17.08;;;4.32;;
25191;SDS011;13143;50.924;5.320;2023-04-25T04:58:09;26.20;;;4.97;;
25191;SDS011;13143;50.924;5.320;2023-04-25T05:00:35;18.60;;;4.30;;
25191;SDS011;13143;50.924;5.320;2023-04-25T05:03:01;16.13;;;4.35;;
25191;SDS011;13143;50.924;5.320;2023-04-25T05:05:27;15.55;;;4.75;;
25191;SDS011;13143;50.924;5.320;2023-04-25T05:07:53;17.35;;;4.70;;
25191;SDS011;13143;50.924;5.320;2023-04-25T05:10:19;19.13;;;4.43;;
25191;SDS011;13143;50.924;5.320;2023-04-25T05:12:45;12.85;;;4.35;;
25191;SDS011;13143;50.924;5.320;2023-04-25T05:15:12;16.27;;;3.92;;
25191;SDS011;13143;50.924;5.320;2023-04-25T05:17:38;16.85;;;4.47;;
25191;SDS011;13143;50.924;5.320;2023-04-25T05:20:05;24.75;;;5.88;;
25191;SDS011;13143;50.924;5.320;2023-04-25T05:22:32;19.15;;;6.22;;
25191;SDS011;13143;50.924;5.320;2023-04-25T05:24:58;21.15;;;4.82;;
25191;SDS011;13143;50.924;5.320;2023-04-25T05:27:24;20.67;;;5.93;;
25191;SDS011;13143;50.924;5.320;2023-04-25T05:29:50;21.90;;;5.43;;
25191;SDS011;13143;50.924;5.320;2023-04-25T05:32:18;18.95;;;5.70;;
25191;SDS011;13143;50.924;5.320;2023-04-25T05:34:44;20.05;;;5.88;;
25191;SDS011;13143;50.924;5.320;2023-04-25T05:37:10;12.65;;;4.75;;
25191;SDS011;13143;50.924;5.320;2023-04-25T05:39:36;16.60;;;5.65;;
25191;SDS011;13143;50.924;5.320;2023-04-25T05:42:02;18.38;;;5.60;;
25191;SDS011;13143;50.924;5.320;2023-04-25T05:44:29;19.52;;;5.20;;
25191;SDS011;13143;50.924;5.320;2023-04-25T05:46:56;15.73;;;4.68;;
25191;SDS011;13143;50.924;5.320;2023-04-25T05:49:22;17.92;;;5.20;;
25191;SDS011;13143;50.924;5.320;2023-04-25T05:51:48;16.67;;;5.35;;
25191;SDS011;13143;50.924;5.320;2023-04-25T05:54:14;15.07;;;5.70;;
25191;SDS011;13143;50.924;5.320;2023-04-25T05:56:40;20.05;;;5.20;;
25191;SDS011;13143;50.924;5.320;2023-04-25T05:59:06;22.73;;;5.68;;
25191;SDS011;13143;50.924;5.320;2023-04-25T06:01:32;20.05;;;5.35;;
25191;SDS011;13143;50.924;5.320;2023-04-25T06:03:58;18.75;;;5.57;;
25191;SDS011;13143;50.924;5.320;2023-04-25T06:06:24;17.35;;;5.50;;
25191;SDS011;13143;50.924;5.320;2023-04-25T06:08:52;28.60;;;4.97;;
25191;SDS011;13143;50.924;5.320;2023-04-25T06:11:18;18.13;;;4.95;;
25191;SDS011;13143;50.924;5.320;2023-04-25T06:13:44;20.92;;;5.68;;
25191;SDS011;13143;50.924;5.320;2023-04-25T06:16:11;18.35;;;5.20;;
25191;SDS011;13143;50.924;5.320;2023-04-25T06:18:37;21.80;;;5.32;;
25191;SDS011;13143;50.924;5.320;2023-04-25T06:21:03;23.83;;;5.05;;
25191;SDS011;13143;50.924;5.320;2023-04-25T06:23:29;20.77;;;5.70;;
25191;SDS011;13143;50.924;5.320;2023-04-25T06:25:55;30.65;;;6.25;;
25191;SDS011;13143;50.924;5.320;2023-04-25T06:28:22;22.95;;;6.50;;
25191;SDS011;13143;50.924;5.320;2023-04-25T06:30:48;23.10;;;7.22;;
25191;SDS011;13143;50.924;5.320;2023-04-25T06:33:14;22.27;;;7.55;;
25191;SDS011;13143;50.924;5.320;2023-04-25T06:35:40;24.42;;;6.65;;
25191;SDS011;13143;50.924;5.320;2023-04-25T06:38:06;31.63;;;7.85;;
25191;SDS011;13143;50.924;5.320;2023-04-25T06:40:33;36.03;;;11.55;;
25191;SDS011;13143;50.924;5.320;2023-04-25T06:42:59;29.05;;;8.50;;
25191;SDS011;13143;50.924;5.320;2023-04-25T06:45:25;25.38;;;7.40;;
25191;SDS011;13143;50.924;5.320;2023-04-25T06:47:51;21.85;;;6.88;;
25191;SDS011;13143;50.924;5.320;2023-04-25T06:50:17;27.08;;;7.10;;
25191;SDS011;13143;50.924;5.320;2023-04-25T06:52:43;24.05;;;6.40;;
25191;SDS011;13143;50.924;5.320;2023-04-25T06:55:09;22.35;;;6.40;;
25191;SDS011;13143;50.924;5.320;2023-04-25T06:57:35;25.83;;;6.13;;
25191;SDS011;13143;50.924;5.320;2023-04-25T07:00:01;29.70;;;6.25;;
25191;SDS011;13143;50.924;5.320;2023-04-25T07:02:30;33.67;;;7.88;;
25191;SDS011;13143;50.924;5.320;2023-04-25T07:04:56;32.05;;;7.40;;
25191;SDS011;13143;50.924;5.320;2023-04-25T07:07:25;24.10;;;7.88;;
25191;SDS011;13143;50.924;5.320;2023-04-25T07:09:52;29.90;;;7.55;;
25191;SDS011;13143;50.924;5.320;2023-04-25T07:12:18;27.42;;;8.88;;
25191;SDS011;13143;50.924;5.320;2023-04-25T07:14:44;37.28;;;9.18;;
25191;SDS011;13143;50.924;5.320;2023-04-25T07:17:10;38.47;;;9.68;;
25191;SDS011;13143;50.924;5.320;2023-04-25T07:19:36;27.65;;;8.07;;
25191;SDS011;13143;50.924;5.320;2023-04-25T07:22:04;30.65;;;8.80;;
25191;SDS011;13143;50.924;5.320;2023-04-25T07:24:30;25.08;;;8.52;;
25191;SDS011;13143;50.924;5.320;2023-04-25T07:26:56;27.67;;;8.93;;
25191;SDS011;13143;50.924;5.320;2023-04-25T07:29:23;26.30;;;7.82;;
25191;SDS011;13143;50.924;5.320;2023-04-25T07:31:49;30.35;;;8.57;;
25191;SDS011;13143;50.924;5.320;2023-04-25T07:34:15;42.25;;;9.00;;
25191;SDS011;13143;50.924;5.320;2023-04-25T07:36:43;39.70;;;8.85;;
25191;SDS011;13143;50.924;5.320;2023-04-25T07:39:09;27.27;;;8.45;;
25191;SDS011;13143;50.924;5.320;2023-04-25T07:41:35;32.35;;;8.30;;
25191;SDS011;13143;50.924;5.320;2023-04-25T07:44:01;23.15;;;6.70;;
25191;SDS011;13143;50.924;5.320;2023-04-25T07:46:27;28.40;;;7.25;;
25191;SDS011;13143;50.924;5.320;2023-04-25T07:48:53;31.38;;;7.75;;
25191;SDS011;13143;50.924;5.320;2023-04-25T07:51:19;16.58;;;4.20;;
25191;SDS011;13143;50.924;5.320;2023-04-25T07:53:47;16.52;;;3.67;;
25191;SDS011;13143;50.924;5.320;2023-04-25T07:56:13;20.95;;;4.18;;
25191;SDS011;13143;50.924;5.320;2023-04-25T07:58:39;23.52;;;4.10;;
25191;SDS011;13143;50.924;5.320;2023-04-25T08:01:05;19.17;;;4.10;;
25191;SDS011;13143;50.924;5.320;2023-04-25T08:03:31;16.95;;;3.92;;
25191;SDS011;13143;50.924;5.320;2023-04-25T08:05:57;15.43;;;3.65;;
25191;SDS011;13143;50.924;5.320;2023-04-25T08:08:23;26.67;;;3.83;;
25191;SDS011;13143;50.924;5.320;2023-04-25T08:10:50;18.88;;;3.40;;
25191;SDS011;13143;50.924;5.320;2023-04-25T08:13:16;18.35;;;3.40;;
25191;SDS011;13143;50.924;5.320;2023-04-25T08:15:42;14.98;;;2.90;;
25191;SDS011;13143;50.924;5.320;2023-04-25T08:18:08;9.95;;;2.95;;
25191;SDS011;13143;50.924;5.320;2023-04-25T08:20:34;15.43;;;3.45;;
25191;SDS011;13143;50.924;5.320;2023-04-25T08:23:01;15.57;;;2.92;;
25191;SDS011;13143;50.924;5.320;2023-04-25T08:25:27;14.65;;;3.03;;
25191;SDS011;13143;50.924;5.320;2023-04-25T08:27:53;9.10;;;2.63;;
25191;SDS011;13143;50.924;5.320;2023-04-25T08:30:19;18.10;;;3.03;;
25191;SDS011;13143;50.924;5.320;2023-04-25T08:32:46;16.75;;;2.92;;
25191;SDS011;13143;50.924;5.320;2023-04-25T08:35:12;13.15;;;3.10;;
25191;SDS011;13143;50.924;5.320;2023-04-25T08:37:38;20.55;;;3.75;;
25191;SDS011;13143;50.924;5.320;2023-04-25T08:40:04;15.30;;;3.20;;
25191;SDS011;13143;50.924;5.320;2023-04-25T08:42:33;14.93;;;3.50;;
25191;SDS011;13143;50.924;5.320;2023-04-25T08:45:01;17.55;;;3.72;;
25191;SDS011;13143;50.924;5.320;2023-04-25T08:47:29;15.27;;;3.33;;
25191;SDS011;13143;50.924;5.320;2023-04-25T08:49:57;18.30;;;3.08;;
25191;SDS011;13143;50.924;5.320;2023-04-25T08:52:24;14.02;;;3.20;;
25191;SDS011;13143;50.924;5.320;2023-04-25T08:54:55;12.15;;;3.38;;
25191;SDS011;13143;50.924;5.320;2023-04-25T08:57:23;19.55;;;4.25;;
25191;SDS011;13143;50.924;5.320;2023-04-25T08:59:49;24.40;;;4.63;;
25191;SDS011;13143;50.924;5.320;2023-04-25T09:02:17;16.42;;;4.22;;
25191;SDS011;13143;50.924;5.320;2023-04-25T09:04:45;18.90;;;4.70;;
25191;SDS011;13143;50.924;5.320;2023-04-25T09:07:11;16.13;;;4.03;;
25191;SDS011;13143;50.924;5.320;2023-04-25T09:09:37;24.25;;;6.70;;
25191;SDS011;13143;50.924;5.320;2023-04-25T09:12:04;25.10;;;5.05;;
25191;SDS011;13143;50.924;5.320;2023-04-25T09:14:31;21.00;;;5.03;;
25191;SDS011;13143;50.924;5.320;2023-04-25T09:16:57;20.23;;;6.18;;
25191;SDS011;13143;50.924;5.320;2023-04-25T09:19:29;23.77;;;5.95;;
25191;SDS011;13143;50.924;5.320;2023-04-25T09:21:56;20.13;;;5.78;;
25191;SDS011;13143;50.924;5.320;2023-04-25T09:24:33;20.77;;;5.82;;
25191;SDS011;13143;50.924;5.320;2023-04-25T09:27:04;20.00;;;5.07;;
25191;SDS011;13143;50.924;5.320;2023-04-25T09:29:31;19.08;;;5.45;;
25191;SDS011;13143;50.924;5.320;2023-04-25T09:32:32;19.75;;;5.53;;
25191;SDS011;13143;50.924;5.320;2023-04-25T09:34:52;16.40;;;4.05;;
25191;SDS011;13143;50.924;5.320;2023-04-25T09:37:20;16.88;;;4.50;;
25191;SDS011;13143;50.924;5.320;2023-04-25T09:39:48;16.15;;;4.88;;
25191;SDS011;13143;50.924;5.320;2023-04-25T09:42:26;15.77;;;4.22;;
25191;SDS011;13143;50.924;5.320;2023-04-25T09:44:54;11.25;;;3.55;;
25191;SDS011;13143;50.924;5.320;2023-04-25T09:47:22;20.15;;;4.30;;
25191;SDS011;13143;50.924;5.320;2023-04-25T09:49:52;21.75;;;4.07;;
25191;SDS011;13143;50.924;5.320;2023-04-25T09:52:19;19.00;;;3.55;;
25191;SDS011;13143;50.924;5.320;2023-04-25T09:54:47;15.68;;;3.60;;
25191;SDS011;13143;50.924;5.320;2023-04-25T09:57:15;17.02;;;3.40;;
25191;SDS011;13143;50.924;5.320;2023-04-25T09:59:44;11.15;;;2.78;;
25191;SDS011;13143;50.924;5.320;2023-04-25T10:02:14;17.50;;;3.38;;
25191;SDS011;13143;50.924;5.320;2023-04-25T10:04:42;12.15;;;3.05;;
25191;SDS011;13143;50.924;5.320;2023-04-25T10:07:11;19.38;;;3.67;;
25191;SDS011;13143;50.924;5.320;2023-04-25T10:09:38;13.57;;;3.53;;
25191;SDS011;13143;50.924;5.320;2023-04-25T10:12:05;14.65;;;3.80;;
25191;SDS011;13143;50.924;5.320;2023-04-25T10:14:33;12.98;;;3.03;;
25191;SDS011;13143;50.924;5.320;2023-04-25T10:17:00;15.18;;;3.13;;
25191;SDS011;13143;50.924;5.320;2023-04-25T10:19:26;12.45;;;3.13;;
25191;SDS011;13143;50.924;5.320;2023-04-25T10:21:56;17.23;;;2.50;;
25191;SDS011;13143;50.924;5.320;2023-04-25T10:24:23;13.68;;;2.58;;
25191;SDS011;13143;50.924;5.320;2023-04-25T10:26:50;12.88;;;2.85;;
25191;SDS011;13143;50.924;5.320;2023-04-25T10:29:26;12.02;;;3.15;;
25191;SDS011;13143;50.924;5.320;2023-04-25T10:31:52;15.82;;;3.30;;
25191;SDS011;13143;50.924;5.320;2023-04-25T10:34:19;13.85;;;3.45;;
25191;SDS011;13143;50.924;5.320;2023-04-25T10:36:49;13.85;;;3.08;;
25191;SDS011;13143;50.924;5.320;2023-04-25T10:39:24;19.23;;;3.40;;
25191;SDS011;13143;50.924;5.320;2023-04-25T10:41:56;16.35;;;3.80;;
25191;SDS011;13143;50.924;5.320;2023-04-25T10:44:26;11.88;;;2.72;;
25191;SDS011;13143;50.924;5.320;2023-04-25T10:47:00;7.95;;;1.98;;
25191;SDS011;13143;50.924;5.320;2023-04-25T10:49:32;6.38;;;1.70;;
25191;SDS011;13143;50.924;5.320;2023-04-25T10:54:57;13.07;;;1.50;;
25191;SDS011;13143;50.924;5.320;2023-04-25T10:57:36;8.65;;;2.00;;
25191;SDS011;13143;50.924;5.320;2023-04-25T11:00:12;6.10;;;1.80;;
25191;SDS011;13143;50.924;5.320;2023-04-25T11:02:41;9.60;;;1.95;;
25191;SDS011;13143;50.924;5.320;2023-04-25T11:05:29;5.50;;;1.52;;
25191;SDS011;13143;50.924;5.320;2023-04-25T11:07:58;8.70;;;1.30;;
25191;SDS011;13143;50.924;5.320;2023-04-25T11:10:28;8.73;;;2.10;;
25191;SDS011;13143;50.924;5.320;2023-04-25T11:12:56;6.40;;;1.70;;
25191;SDS011;13143;50.924;5.320;2023-04-25T11:15:23;7.20;;;1.27;;
25191;SDS011;13143;50.924;5.320;2023-04-25T11:17:52;3.40;;;1.50;;
25191;SDS011;13143;50.924;5.320;2023-04-25T11:20:20;10.25;;;1.70;;
25191;SDS011;13143;50.924;5.320;2023-04-25T11:22:47;9.68;;;2.28;;
25191;SDS011;13143;50.924;5.320;2023-04-25T11:25:14;7.40;;;1.90;;
25191;SDS011;13143;50.924;5.320;2023-04-25T11:27:54;5.32;;;1.42;;
25191;SDS011;13143;50.924;5.320;2023-04-25T11:30:23;9.18;;;1.70;;
25191;SDS011;13143;50.924;5.320;2023-04-25T11:32:50;5.82;;;1.60;;
25191;SDS011;13143;50.924;5.320;2023-04-25T11:35:18;13.48;;;1.83;;
25191;SDS011;13143;50.924;5.320;2023-04-25T11:37:45;8.23;;;1.92;;
25191;SDS011;13143;50.924;5.320;2023-04-25T11:40:12;8.05;;;2.15;;
25191;SDS011;13143;50.924;5.320;2023-04-25T11:42:38;7.53;;;2.30;;
25191;SDS011;13143;50.924;5.320;2023-04-25T11:45:08;8.18;;;1.85;;
25191;SDS011;13143;50.924;5.320;2023-04-25T11:47:35;8.52;;;2.00;;
25191;SDS011;13143;50.924;5.320;2023-04-25T11:50:01;9.30;;;2.38;;
25191;SDS011;13143;50.924;5.320;2023-04-25T11:53:02;6.82;;;1.80;;
25191;SDS011;13143;50.924;5.320;2023-04-25T11:55:21;9.52;;;2.25;;
25191;SDS011;13143;50.924;5.320;2023-04-25T11:57:48;8.48;;;2.10;;
25191;SDS011;13143;50.924;5.320;2023-04-25T12:00:16;7.55;;;1.80;;
25191;SDS011;13143;50.924;5.320;2023-04-25T12:02:45;9.98;;;1.88;;
25191;SDS011;13143;50.924;5.320;2023-04-25T12:05:13;11.43;;;2.50;;
25191;SDS011;13143;50.924;5.320;2023-04-25T12:07:41;7.95;;;1.92;;
25191;SDS011;13143;50.924;5.320;2023-04-25T12:10:08;8.30;;;2.15;;
25191;SDS011;13143;50.924;5.320;2023-04-25T12:12:43;7.05;;;1.88;;
25191;SDS011;13143;50.924;5.320;2023-04-25T12:17:45;13.77;;;1.83;;
25191;SDS011;13143;50.924;5.320;2023-04-25T12:20:15;10.43;;;2.38;;
25191;SDS011;13143;50.924;5.320;2023-04-25T12:22:47;12.27;;;2.45;;
25191;SDS011;13143;50.924;5.320;2023-04-25T12:25:33;10.93;;;3.05;;
25191;SDS011;13143;50.924;5.320;2023-04-25T12:28:16;17.90;;;3.00;;
25191;SDS011;13143;50.924;5.320;2023-04-25T12:30:51;15.70;;;2.28;;
25191;SDS011;13143;50.924;5.320;2023-04-25T12:33:31;11.50;;;2.00;;
25191;SDS011;13143;50.924;5.320;2023-04-25T12:35:59;6.78;;;2.33;;
25191;SDS011;13143;50.924;5.320;2023-04-25T12:38:30;7.50;;;2.10;;
25191;SDS011;13143;50.924;5.320;2023-04-25T12:40:57;4.30;;;1.90;;
25191;SDS011;13143;50.924;5.320;2023-04-25T12:43:24;10.95;;;3.08;;
25191;SDS011;13143;50.924;5.320;2023-04-25T12:45:50;9.35;;;2.75;;
25191;SDS011;13143;50.924;5.320;2023-04-25T12:48:18;8.38;;;2.00;;
25191;SDS011;13143;50.924;5.320;2023-04-25T12:50:44;7.18;;;2.42;;
25191;SDS011;13143;50.924;5.320;2023-04-25T12:53:14;5.07;;;2.00;;
25191;SDS011;13143;50.924;5.320;2023-04-25T12:55:45;6.65;;;2.00;;
25191;SDS011;13143;50.924;5.320;2023-04-25T12:58:12;9.77;;;2.33;;
25191;SDS011;13143;50.924;5.320;2023-04-25T13:00:39;10.07;;;2.20;;
25191;SDS011;13143;50.924;5.320;2023-04-25T13:03:05;6.68;;;2.28;;
25191;SDS011;13143;50.924;5.320;2023-04-25T13:05:31;12.65;;;2.20;;
25191;SDS011;13143;50.924;5.320;2023-04-25T13:07:57;8.18;;;1.90;;
25191;SDS011;13143;50.924;5.320;2023-04-25T13:10:23;8.32;;;2.03;;
25191;SDS011;13143;50.924;5.320;2023-04-25T13:12:49;5.22;;;1.92;;
25191;SDS011;13143;50.924;5.320;2023-04-25T13:15:16;8.95;;;2.60;;
25191;SDS011;13143;50.924;5.320;2023-04-25T13:17:42;7.07;;;2.20;;
25191;SDS011;13143;50.924;5.320;2023-04-25T13:20:08;9.15;;;2.35;;
25191;SDS011;13143;50.924;5.320;2023-04-25T13:22:35;8.45;;;2.22;;
25191;SDS011;13143;50.924;5.320;2023-04-25T13:25:05;4.55;;;2.30;;
25191;SDS011;13143;50.924;5.320;2023-04-25T13:27:32;8.02;;;2.67;;
25191;SDS011;13143;50.924;5.320;2023-04-25T13:29:59;11.07;;;3.15;;
25191;SDS011;13143;50.924;5.320;2023-04-25T13:32:26;8.90;;;2.65;;
25191;SDS011;13143;50.924;5.320;2023-04-25T13:34:53;8.63;;;2.75;;
25191;SDS011;13143;50.924;5.320;2023-04-25T13:37:19;14.52;;;3.00;;
25191;SDS011;13143;50.924;5.320;2023-04-25T13:39:45;13.43;;;3.25;;
25191;SDS011;13143;50.924;5.320;2023-04-25T13:42:11;11.20;;;2.92;;
25191;SDS011;13143;50.924;5.320;2023-04-25T13:44:37;8.60;;;2.63;;
25191;SDS011;13143;50.924;5.320;2023-04-25T13:47:03;12.93;;;2.60;;
25191;SDS011;13143;50.924;5.320;2023-04-25T13:49:29;8.63;;;2.60;;
25191;SDS011;13143;50.924;5.320;2023-04-25T13:51:55;9.82;;;2.80;;
25191;SDS011;13143;50.924;5.320;2023-04-25T13:54:21;8.95;;;2.67;;
25191;SDS011;13143;50.924;5.320;2023-04-25T13:56:48;6.38;;;2.42;;
25191;SDS011;13143;50.924;5.320;2023-04-25T13:59:15;12.30;;;2.70;;
25191;SDS011;13143;50.924;5.320;2023-04-25T14:01:42;6.22;;;2.38;;
25191;SDS011;13143;50.924;5.320;2023-04-25T14:04:08;10.93;;;2.40;;
25191;SDS011;13143;50.924;5.320;2023-04-25T14:06:34;9.55;;;2.35;;
25191;SDS011;13143;50.924;5.320;2023-04-25T14:09:00;7.15;;;2.30;;
25191;SDS011;13143;50.924;5.320;2023-04-25T14:11:27;7.22;;;2.10;;
25191;SDS011;13143;50.924;5.320;2023-04-25T14:13:53;10.10;;;2.33;;
25191;SDS011;13143;50.924;5.320;2023-04-25T14:16:19;9.70;;;2.13;;
25191;SDS011;13143;50.924;5.320;2023-04-25T14:18:45;7.38;;;1.83;;
25191;SDS011;13143;50.924;5.320;2023-04-25T14:21:11;9.60;;;1.77;;
25191;SDS011;13143;50.924;5.320;2023-04-25T14:23:37;6.93;;;1.80;;
25191;SDS011;13143;50.924;5.320;2023-04-25T14:26:03;7.05;;;2.15;;
25191;SDS011;13143;50.924;5.320;2023-04-25T14:28:30;6.82;;;1.75;;
25191;SDS011;13143;50.924;5.320;2023-04-25T14:30:56;8.02;;;1.70;;
25191;SDS011;13143;50.924;5.320;2023-04-25T14:33:22;9.55;;;2.15;;
25191;SDS011;13143;50.924;5.320;2023-04-25T14:35:49;3.10;;;1.42;;
25191;SDS011;13143;50.924;5.320;2023-04-25T14:38:15;7.97;;;1.88;;
25191;SDS011;13143;50.924;5.320;2023-04-25T14:40:41;11.73;;;2.28;;